createdAt,value
2023-03-08T00:01:02.736Z,100.00
2023-03-08T00:03:29.354Z,100.00
2023-03-08T00:05:55.584Z,100.00
2023-03-08T00:08:22.017Z,100.00
2023-03-08T00:10:48.150Z,100.00
2023-03-08T00:13:14.539Z,100.00
2023-03-08T00:15:40.706Z,100.00
2023-03-08T00:18:07.180Z,100.00
2023-03-08T00:20:33.342Z,100.00
2023-03-08T00:22:59.744Z,100.00
2023-03-08T00:25:25.829Z,100.00
2023-03-08T00:27:52.176Z,100.00
2023-03-08T00:30:18.393Z,100.00
2023-03-08T00:32:44.924Z,100.00
2023-03-08T00:35:12.223Z,100.00
2023-03-08T00:37:38.634Z,100.00
2023-03-08T00:40:05.373Z,100.00
2023-03-08T00:42:34.571Z,100.00
2023-03-08T00:45:00.655Z,100.00
2023-03-08T00:47:27.890Z,100.00
2023-03-08T00:49:53.989Z,100.00
2023-03-08T00:52:20.734Z,100.00
2023-03-08T00:54:47.110Z,100.00
2023-03-08T00:57:13.983Z,100.00
2023-03-08T00:59:40.070Z,100.00
2023-03-08T01:02:06.619Z,100.00
2023-03-08T01:04:33.297Z,100.00
2023-03-08T01:07:00.456Z,100.00
2023-03-08T01:09:26.547Z,100.00
2023-03-08T01:11:53.293Z,100.00
2023-03-08T01:14:19.480Z,100.00
2023-03-08T01:16:45.873Z,100.00
2023-03-08T01:19:12.159Z,100.00
2023-03-08T01:21:38.548Z,100.00
2023-03-08T01:24:05.145Z,100.00
2023-03-08T01:26:31.575Z,100.00
2023-03-08T01:28:57.800Z,100.00
2023-03-08T01:31:29.277Z,100.00
2023-03-08T01:33:57.521Z,100.00
2023-03-08T01:36:26.154Z,100.00
2023-03-08T01:38:53.002Z,100.00
2023-03-08T01:41:24.069Z,100.00
2023-03-08T01:43:51.135Z,100.00
2023-03-08T01:46:35.195Z,100.00
2023-03-08T01:49:34.267Z,100.00
2023-03-08T01:52:08.399Z,100.00
2023-03-08T01:54:47.232Z,100.00
2023-03-08T01:57:41.971Z,100.00
2023-03-08T02:00:18.447Z,100.00
2023-03-08T02:02:59.064Z,100.00
2023-03-08T02:05:27.264Z,100.00
2023-03-08T02:07:58.824Z,100.00
2023-03-08T02:10:29.822Z,100.00
2023-03-08T02:12:56.390Z,100.00
2023-03-08T02:15:22.943Z,100.00
2023-03-08T02:17:53.744Z,100.00
2023-03-08T02:20:29.553Z,100.00
2023-03-08T02:23:13.549Z,100.00
2023-03-08T02:25:48.761Z,100.00
2023-03-08T02:28:15.372Z,100.00
2023-03-08T02:30:41.588Z,100.00
2023-03-08T02:33:07.956Z,100.00
2023-03-08T02:35:35.242Z,100.00
2023-03-08T02:38:01.642Z,100.00
2023-03-08T02:40:27.751Z,100.00
2023-03-08T02:42:55.657Z,100.00
2023-03-08T02:45:22.580Z,100.00
2023-03-08T02:47:49.105Z,100.00
2023-03-08T02:50:16.353Z,100.00
2023-03-08T02:52:44.175Z,100.00
2023-03-08T02:55:10.347Z,100.00
2023-03-08T02:57:36.796Z,100.00
2023-03-08T03:00:05.306Z,100.00
2023-03-08T03:02:33.799Z,100.00
2023-03-08T03:05:03.475Z,100.00
2023-03-08T03:07:29.940Z,100.00
2023-03-08T03:09:56.144Z,100.00
2023-03-08T03:12:22.579Z,100.00
2023-03-08T03:14:48.666Z,100.00
2023-03-08T03:17:15.764Z,100.00
2023-03-08T03:19:41.891Z,100.00
2023-03-08T03:22:08.277Z,100.00
2023-03-08T03:24:37.144Z,100.00
2023-03-08T03:27:04.928Z,100.00
2023-03-08T03:29:33.799Z,100.00
2023-03-08T03:32:09.694Z,100.00
2023-03-08T03:34:36.250Z,100.00
2023-03-08T03:37:03.095Z,100.00
2023-03-08T03:39:34.132Z,100.00
2023-03-08T03:42:01.277Z,100.00
2023-03-08T03:44:30.096Z,100.00
2023-03-08T03:46:57.215Z,100.00
2023-03-08T03:49:25.777Z,100.00
2023-03-08T03:51:52.246Z,100.00
2023-03-08T03:54:34.710Z,100.00
2023-03-08T03:57:02.115Z,100.00
2023-03-08T03:59:33.625Z,100.00
2023-03-08T04:02:00.720Z,100.00
2023-03-08T04:04:38.805Z,100.00
2023-03-08T04:07:05.821Z,100.00
2023-03-08T04:09:38.206Z,100.00
2023-03-08T04:12:16.702Z,100.00
2023-03-08T04:14:44.040Z,100.00
2023-03-08T04:17:12.779Z,100.00
2023-03-08T04:19:49.327Z,100.00
2023-03-08T04:22:16.888Z,100.00
2023-03-08T04:24:48.735Z,100.00
2023-03-08T04:27:20.892Z,100.00
2023-03-08T04:29:47.316Z,100.00
2023-03-08T04:32:14.478Z,100.00
2023-03-08T04:34:46.087Z,100.00
2023-03-08T04:37:16.113Z,100.00
2023-03-08T04:39:46.979Z,100.00
2023-03-08T04:42:13.726Z,100.00
2023-03-08T04:44:40.116Z,100.00
2023-03-08T04:47:07.925Z,100.00
2023-03-08T04:49:43.298Z,100.00
2023-03-08T04:52:09.767Z,100.00
2023-03-08T04:54:38.013Z,100.00
2023-03-08T04:57:20.792Z,100.00
2023-03-08T04:59:48.013Z,100.00
2023-03-08T05:02:14.513Z,100.00
2023-03-08T05:04:41.485Z,100.00
2023-03-08T05:07:07.868Z,100.00
2023-03-08T05:09:35.689Z,100.00
2023-03-08T05:12:02.360Z,100.00
2023-03-08T05:14:42.455Z,100.00
2023-03-08T05:17:09.301Z,100.00
2023-03-08T05:19:35.415Z,100.00
2023-03-08T05:22:01.942Z,100.00
2023-03-08T05:24:29.298Z,100.00
2023-03-08T05:26:58.840Z,100.00
2023-03-08T05:29:25.287Z,100.00
2023-03-08T05:31:51.683Z,100.00
2023-03-08T05:34:18.173Z,100.00
2023-03-08T05:36:47.097Z,100.00
2023-03-08T05:39:13.506Z,100.00
2023-03-08T05:41:56.568Z,100.00
2023-03-08T05:44:28.646Z,100.00
2023-03-08T05:46:57.650Z,100.00
2023-03-08T05:49:25.258Z,100.00
2023-03-08T05:51:52.150Z,100.00
2023-03-08T05:54:20.500Z,100.00
2023-03-08T05:56:49.197Z,100.00
2023-03-08T05:59:25.977Z,100.00
2023-03-08T06:01:54.296Z,100.00
2023-03-08T06:04:29.752Z,100.00
2023-03-08T06:06:56.312Z,100.00
2023-03-08T06:09:27.463Z,100.00
2023-03-08T06:11:55.024Z,100.00
2023-03-08T06:14:22.784Z,100.00
2023-03-08T06:16:50.585Z,100.00
2023-03-08T06:19:19.601Z,100.00
2023-03-08T06:21:47.467Z,100.00
2023-03-08T06:24:13.922Z,100.00
2023-03-08T06:26:40.539Z,100.00
2023-03-08T06:29:06.821Z,100.00
2023-03-08T06:31:33.252Z,98.87
2023-03-08T06:34:01.467Z,99.37
2023-03-08T06:36:28.055Z,100.00
2023-03-08T06:38:55.268Z,100.00
2023-03-08T06:41:21.860Z,100.00
2023-03-08T06:43:52.617Z,100.00
2023-03-08T06:46:19.667Z,100.00
2023-03-08T06:48:47.124Z,100.00
2023-03-08T06:51:15.856Z,100.00
2023-03-08T06:53:44.317Z,100.00
2023-03-08T06:56:14.448Z,100.00
2023-03-08T06:58:41.281Z,100.00
2023-03-08T07:01:08.999Z,100.00
2023-03-08T07:03:36.454Z,100.00
2023-03-08T07:06:05.385Z,100.00
2023-03-08T07:08:31.607Z,100.00
2023-03-08T07:10:58.630Z,100.00
2023-03-08T07:13:25.332Z,100.00
2023-03-08T07:15:52.032Z,100.00
2023-03-08T07:18:19.058Z,100.00
2023-03-08T07:20:45.606Z,100.00
2023-03-08T07:23:11.813Z,100.00
2023-03-08T07:25:41.651Z,100.00
2023-03-08T07:28:07.993Z,100.00
2023-03-08T07:30:34.489Z,100.00
2023-03-08T07:33:00.901Z,100.00
2023-03-08T07:35:27.540Z,100.00
2023-03-08T07:37:53.802Z,100.00
2023-03-08T07:40:20.840Z,100.00
2023-03-08T07:42:47.549Z,100.00
2023-03-08T07:45:28.425Z,100.00
2023-03-08T07:47:54.653Z,100.00
2023-03-08T07:50:21.537Z,100.00
2023-03-08T07:52:48.640Z,100.00
2023-03-08T07:55:15.749Z,100.00
2023-03-08T07:57:42.016Z,99.86
2023-03-08T08:00:09.209Z,99.43
2023-03-08T08:02:38.833Z,98.83
2023-03-08T08:05:06.326Z,98.54
2023-03-08T08:07:32.582Z,98.67
2023-03-08T08:09:59.291Z,98.30
2023-03-08T08:12:25.819Z,97.91
2023-03-08T08:14:53.005Z,98.01
2023-03-08T08:17:20.004Z,97.72
2023-03-08T08:19:47.494Z,97.42
2023-03-08T08:22:14.291Z,96.69
2023-03-08T08:24:40.888Z,96.99
2023-03-08T08:27:07.185Z,96.34
2023-03-08T08:29:33.866Z,96.08
2023-03-08T08:32:01.702Z,95.63
2023-03-08T08:34:28.374Z,94.73
2023-03-08T08:36:54.766Z,95.69
2023-03-08T08:39:21.603Z,96.94
2023-03-08T08:41:50.971Z,97.20
2023-03-08T08:44:17.662Z,95.81
2023-03-08T08:46:44.069Z,95.23
2023-03-08T08:49:10.698Z,93.04
2023-03-08T08:51:37.171Z,94.50
2023-03-08T08:54:04.165Z,94.41
2023-03-08T08:56:31.776Z,94.88
2023-03-08T08:59:01.814Z,94.53
2023-03-08T09:01:32.072Z,95.17
2023-03-08T09:03:59.585Z,93.08
2023-03-08T09:06:27.511Z,93.88
2023-03-08T09:08:57.201Z,92.97
2023-03-08T09:11:26.148Z,93.65
2023-03-08T09:13:53.478Z,92.86
2023-03-08T09:16:32.839Z,92.18
2023-03-08T09:19:01.875Z,93.54
2023-03-08T09:21:29.930Z,91.44
2023-03-08T09:24:04.142Z,90.48
2023-03-08T09:26:31.915Z,90.27
2023-03-08T09:29:04.084Z,90.49
2023-03-08T09:31:31.775Z,90.77
2023-03-08T09:33:59.343Z,91.49
2023-03-08T09:36:28.059Z,92.99
2023-03-08T09:38:55.406Z,92.41
2023-03-08T09:41:27.724Z,91.20
2023-03-08T09:44:12.307Z,93.61
2023-03-08T09:46:57.705Z,93.63
2023-03-08T09:49:28.957Z,94.10
2023-03-08T09:52:06.210Z,94.20
2023-03-08T09:54:37.583Z,92.67
2023-03-08T09:57:11.097Z,92.39
2023-03-08T09:59:44.890Z,93.54
2023-03-08T10:02:33.702Z,92.51
2023-03-08T10:05:12.678Z,90.88
2023-03-08T10:08:20.313Z,92.12
2023-03-08T10:11:06.952Z,89.36
2023-03-08T10:13:53.524Z,89.60
2023-03-08T10:16:25.878Z,88.63
2023-03-08T10:19:01.466Z,85.82
2023-03-08T10:21:30.942Z,88.18
2023-03-08T10:24:01.706Z,86.82
2023-03-08T10:26:28.212Z,85.34
2023-03-08T10:28:54.425Z,85.96
2023-03-08T10:31:25.884Z,82.82
2023-03-08T10:34:01.667Z,83.19
2023-03-08T10:36:28.487Z,84.39
2023-03-08T10:39:06.876Z,86.00
2023-03-08T10:41:45.669Z,84.39
2023-03-08T10:44:36.386Z,85.28
2023-03-08T10:47:16.507Z,86.18
2023-03-08T10:49:44.508Z,86.54
2023-03-08T10:52:26.913Z,86.60
2023-03-08T10:55:05.601Z,88.07
2023-03-08T10:57:32.839Z,88.38
2023-03-08T11:00:21.903Z,88.71
2023-03-08T11:02:48.874Z,89.34
2023-03-08T11:05:21.399Z,89.11
2023-03-08T11:07:53.658Z,89.16
2023-03-08T11:10:23.772Z,89.28
2023-03-08T11:13:09.474Z,90.36
2023-03-08T11:15:39.793Z,90.50
2023-03-08T11:18:26.883Z,89.47
2023-03-08T11:21:00.323Z,89.95
2023-03-08T11:23:38.977Z,89.34
2023-03-08T11:26:29.746Z,88.86
2023-03-08T11:29:45.661Z,89.67
2023-03-08T11:32:39.400Z,90.03
2023-03-08T11:35:24.614Z,90.10
2023-03-08T11:38:04.449Z,90.49
2023-03-08T11:40:59.036Z,90.35
2023-03-08T11:43:34.062Z,90.06
2023-03-08T11:46:19.008Z,89.05
2023-03-08T11:49:15.755Z,90.35
2023-03-08T11:52:04.775Z,91.92
2023-03-08T11:54:37.273Z,91.05
2023-03-08T11:57:11.803Z,91.13
2023-03-08T11:59:46.956Z,89.64
2023-03-08T12:02:19.916Z,89.64
2023-03-08T12:05:05.777Z,89.61
2023-03-08T12:08:11.215Z,86.32
2023-03-08T12:10:49.253Z,86.35
2023-03-08T12:13:24.430Z,86.21
2023-03-08T12:15:59.971Z,85.40
2023-03-08T12:18:51.103Z,85.85
2023-03-08T12:21:53.421Z,83.71
2023-03-08T12:24:52.745Z,83.06
2023-03-08T12:27:30.520Z,84.68
2023-03-08T12:30:13.394Z,83.53
2023-03-08T12:32:42.287Z,84.77
2023-03-08T12:35:34.504Z,84.33
2023-03-08T12:38:05.259Z,84.41
2023-03-08T12:40:38.700Z,85.19
2023-03-08T12:43:18.769Z,83.97
2023-03-08T12:46:10.936Z,83.27
2023-03-08T12:48:44.352Z,83.18
2023-03-08T12:51:10.983Z,82.84
2023-03-08T12:53:49.859Z,84.63
2023-03-08T12:56:23.355Z,84.89
2023-03-08T12:58:54.127Z,84.80
2023-03-08T13:01:41.509Z,83.84
2023-03-08T13:04:39.972Z,84.67
2023-03-08T13:07:31.283Z,85.50
2023-03-08T13:10:21.095Z,83.60
2023-03-08T13:13:36.772Z,83.51
2023-03-08T13:16:37.621Z,84.59
2023-03-08T13:19:13.954Z,85.01
2023-03-08T13:21:48.246Z,85.29
2023-03-08T13:24:26.921Z,84.77
2023-03-08T13:27:12.084Z,85.69
2023-03-08T13:29:42.451Z,85.15
2023-03-08T13:32:16.315Z,84.30
2023-03-08T13:34:46.384Z,84.70
2023-03-08T13:37:26.641Z,82.78
2023-03-08T13:39:58.714Z,83.47
2023-03-08T13:42:27.954Z,83.39
2023-03-08T13:45:10.056Z,83.62
2023-03-08T13:47:38.940Z,85.34
2023-03-08T13:50:06.184Z,83.83
2023-03-08T13:52:36.143Z,83.57
2023-03-08T13:55:06.788Z,83.50
2023-03-08T13:57:36.199Z,84.08
2023-03-08T14:00:23.658Z,84.07
2023-03-08T14:02:50.025Z,85.88
2023-03-08T14:05:21.921Z,85.67
2023-03-08T14:08:00.142Z,85.01
2023-03-08T14:10:39.737Z,85.72
2023-03-08T14:13:17.474Z,85.98
2023-03-08T14:15:49.833Z,86.96
2023-03-08T14:18:22.720Z,86.96
2023-03-08T14:21:07.528Z,88.18
2023-03-08T14:23:39.630Z,86.71
2023-03-08T14:26:21.989Z,87.94
2023-03-08T14:28:48.450Z,87.52
2023-03-08T14:31:33.334Z,88.39
2023-03-08T14:34:02.930Z,88.18
2023-03-08T14:36:32.661Z,88.48
2023-03-08T14:38:59.505Z,88.72
2023-03-08T14:41:34.853Z,89.44
2023-03-08T14:44:02.834Z,89.63
2023-03-08T14:46:31.214Z,89.12
2023-03-08T14:49:03.664Z,88.95
2023-03-08T14:51:40.169Z,90.39
2023-03-08T14:54:19.598Z,90.71
2023-03-08T14:56:47.319Z,91.44
2023-03-08T14:59:25.188Z,91.84
2023-03-08T15:01:54.851Z,92.78
2023-03-08T15:04:24.908Z,93.39
2023-03-08T15:06:53.698Z,93.86
2023-03-08T15:09:21.868Z,94.84
2023-03-08T15:11:51.847Z,95.36
2023-03-08T15:14:18.114Z,95.52
2023-03-08T15:16:44.941Z,96.19
2023-03-08T15:19:13.270Z,96.58
2023-03-08T15:21:40.616Z,97.75
2023-03-08T15:24:10.002Z,98.02
2023-03-08T15:26:36.579Z,98.68
2023-03-08T15:29:03.141Z,99.08
2023-03-08T15:31:30.958Z,99.50
2023-03-08T15:33:57.465Z,99.18
2023-03-08T15:36:24.303Z,99.82
2023-03-08T15:38:50.755Z,99.07
2023-03-08T15:41:17.870Z,99.77
2023-03-08T15:43:44.257Z,99.42
2023-03-08T15:46:12.968Z,99.60
2023-03-08T15:48:39.850Z,99.37
2023-03-08T15:51:18.541Z,99.16
2023-03-08T15:53:45.636Z,98.89
2023-03-08T15:56:12.332Z,98.93
2023-03-08T15:58:39.110Z,99.08
2023-03-08T16:01:06.529Z,99.52
2023-03-08T16:03:34.362Z,99.84
2023-03-08T16:06:02.521Z,99.70
2023-03-08T16:08:29.161Z,100.00
2023-03-08T16:10:59.742Z,100.00
2023-03-08T16:13:26.591Z,100.00
2023-03-08T16:15:57.453Z,100.00
2023-03-08T16:18:25.282Z,100.00
2023-03-08T16:20:51.810Z,100.00
2023-03-08T16:23:18.221Z,100.00
2023-03-08T16:25:45.765Z,100.00
2023-03-08T16:28:12.448Z,100.00
2023-03-08T16:30:41.315Z,100.00
2023-03-08T16:33:07.841Z,100.00
2023-03-08T16:35:34.578Z,100.00
2023-03-08T16:38:00.906Z,100.00
2023-03-08T16:40:30.611Z,100.00
2023-03-08T16:42:57.334Z,100.00
2023-03-08T16:45:23.961Z,100.00
2023-03-08T16:47:50.265Z,100.00
2023-03-08T16:50:16.878Z,100.00
2023-03-08T16:52:43.228Z,100.00
2023-03-08T16:55:11.498Z,100.00
2023-03-08T16:57:39.017Z,100.00
2023-03-08T17:00:09.327Z,100.00
2023-03-08T17:02:35.750Z,100.00
2023-03-08T17:05:02.561Z,100.00
2023-03-08T17:07:29.009Z,100.00
2023-03-08T17:09:57.064Z,100.00
2023-03-08T17:12:24.091Z,100.00
2023-03-08T17:14:50.782Z,100.00
2023-03-08T17:17:17.073Z,100.00
2023-03-08T17:19:43.601Z,100.00
2023-03-08T17:22:09.735Z,100.00
2023-03-08T17:24:36.616Z,100.00
2023-03-08T17:27:04.264Z,100.00
2023-03-08T17:29:30.672Z,100.00
2023-03-08T17:31:56.989Z,100.00
2023-03-08T17:34:23.918Z,100.00
2023-03-08T17:36:50.875Z,100.00
2023-03-08T17:39:17.684Z,100.00
2023-03-08T17:41:44.127Z,100.00
2023-03-08T17:44:11.365Z,100.00
2023-03-08T17:46:37.818Z,100.00
2023-03-08T17:49:05.050Z,100.00
2023-03-08T17:51:32.248Z,100.00
2023-03-08T17:54:00.408Z,100.00
2023-03-08T17:56:29.733Z,100.00
2023-03-08T17:58:58.489Z,100.00
2023-03-08T18:01:27.306Z,100.00
2023-03-08T18:03:54.682Z,100.00
2023-03-08T18:06:33.766Z,100.00
2023-03-08T18:09:03.887Z,100.00
2023-03-08T18:11:36.957Z,100.00
2023-03-08T18:14:08.051Z,100.00
2023-03-08T18:16:35.227Z,100.00
2023-03-08T18:19:09.275Z,100.00
2023-03-08T18:21:36.299Z,100.00
2023-03-08T18:24:04.451Z,100.00
2023-03-08T18:26:30.925Z,100.00
2023-03-08T18:28:57.671Z,100.00
2023-03-08T18:31:27.533Z,100.00
2023-03-08T18:33:55.293Z,100.00
2023-03-08T18:36:23.008Z,100.00
2023-03-08T18:38:50.393Z,100.00
2023-03-08T18:41:21.679Z,100.00
2023-03-08T18:43:50.332Z,100.00
2023-03-08T18:46:17.707Z,100.00
2023-03-08T18:48:49.976Z,100.00
2023-03-08T18:51:16.725Z,100.00
2023-03-08T18:53:43.677Z,100.00
2023-03-08T18:56:10.205Z,100.00
2023-03-08T18:58:37.241Z,100.00
2023-03-08T19:01:13.748Z,100.00
2023-03-08T19:03:41.796Z,100.00
2023-03-08T19:06:09.018Z,100.00
2023-03-08T19:08:35.951Z,100.00
2023-03-08T19:11:19.879Z,100.00
2023-03-08T19:13:48.361Z,100.00
2023-03-08T19:16:17.820Z,100.00
2023-03-08T19:18:45.704Z,100.00
2023-03-08T19:21:21.617Z,100.00
2023-03-08T19:23:49.133Z,100.00
2023-03-08T19:26:36.350Z,100.00
2023-03-08T19:29:16.473Z,100.00
2023-03-08T19:32:04.748Z,100.00
2023-03-08T19:34:36.566Z,100.00
2023-03-08T19:37:04.684Z,100.00
2023-03-08T19:39:34.603Z,100.00
2023-03-08T19:42:05.284Z,100.00
2023-03-08T19:44:32.704Z,100.00
2023-03-08T19:46:59.967Z,100.00
2023-03-08T19:49:29.326Z,100.00
2023-03-08T19:51:57.743Z,100.00
2023-03-08T19:54:26.436Z,100.00
2023-03-08T19:56:53.652Z,100.00
2023-03-08T19:59:20.949Z,100.00
2023-03-08T20:01:53.405Z,100.00
2023-03-08T20:04:21.319Z,100.00
2023-03-08T20:06:49.059Z,100.00
2023-03-08T20:09:20.815Z,100.00
2023-03-08T20:11:50.074Z,100.00
2023-03-08T20:14:16.763Z,100.00
2023-03-08T20:16:43.130Z,100.00
2023-03-08T20:19:10.402Z,100.00
2023-03-08T20:21:37.092Z,100.00
2023-03-08T20:24:03.892Z,100.00
2023-03-08T20:26:32.567Z,100.00
2023-03-08T20:29:00.392Z,100.00
2023-03-08T20:31:29.068Z,100.00
2023-03-08T20:33:56.085Z,100.00
2023-03-08T20:36:23.229Z,100.00
2023-03-08T20:38:50.659Z,100.00
2023-03-08T20:41:21.323Z,100.00
2023-03-08T20:43:50.478Z,100.00
2023-03-08T20:46:19.783Z,100.00
2023-03-08T20:48:46.869Z,100.00
2023-03-08T20:51:16.177Z,100.00
2023-03-08T20:53:43.960Z,100.00
2023-03-08T20:56:15.407Z,100.00
2023-03-08T20:58:42.953Z,100.00
2023-03-08T21:01:14.952Z,100.00
2023-03-08T21:03:42.425Z,100.00
2023-03-08T21:06:18.582Z,100.00
2023-03-08T21:08:46.688Z,100.00
2023-03-08T21:11:14.214Z,100.00
2023-03-08T21:13:42.500Z,100.00
2023-03-08T21:16:13.840Z,100.00
2023-03-08T21:18:45.247Z,100.00
2023-03-08T21:21:26.461Z,100.00
2023-03-08T21:23:58.139Z,100.00
2023-03-08T21:26:27.303Z,100.00
2023-03-08T21:29:01.053Z,100.00
2023-03-08T21:31:28.968Z,100.00
2023-03-08T21:33:56.073Z,100.00
2023-03-08T21:36:23.581Z,100.00
2023-03-08T21:38:54.912Z,100.00
2023-03-08T21:41:27.956Z,100.00
2023-03-08T21:43:55.528Z,100.00
2023-03-08T21:46:25.279Z,100.00
2023-03-08T21:48:54.572Z,100.00
2023-03-08T21:51:21.995Z,100.00
2023-03-08T21:53:49.813Z,100.00
2023-03-08T21:56:17.562Z,100.00
2023-03-08T21:58:44.827Z,100.00
2023-03-08T22:01:19.605Z,100.00
2023-03-08T22:03:46.728Z,100.00
2023-03-08T22:06:13.287Z,100.00
2023-03-08T22:08:39.878Z,100.00
2023-03-08T22:11:06.183Z,100.00
2023-03-08T22:13:32.998Z,100.00
2023-03-08T22:15:59.267Z,100.00
2023-03-08T22:18:25.938Z,100.00
2023-03-08T22:20:55.337Z,100.00
2023-03-08T22:23:21.799Z,100.00
2023-03-08T22:25:48.274Z,100.00
2023-03-08T22:28:14.898Z,100.00
2023-03-08T22:30:41.449Z,100.00
2023-03-08T22:33:08.955Z,100.00
2023-03-08T22:35:35.517Z,100.00
2023-03-08T22:38:01.962Z,100.00
2023-03-08T22:40:28.141Z,100.00
2023-03-08T22:42:54.546Z,100.00
2023-03-08T22:45:20.994Z,100.00
2023-03-08T22:47:47.588Z,100.00
2023-03-08T22:50:13.706Z,100.00
2023-03-08T22:52:40.126Z,100.00
2023-03-08T22:55:06.804Z,100.00
2023-03-08T22:57:35.964Z,100.00
2023-03-08T23:00:04.905Z,100.00
2023-03-08T23:02:32.885Z,100.00
2023-03-08T23:04:59.058Z,100.00
2023-03-08T23:07:25.444Z,100.00
2023-03-08T23:09:52.555Z,100.00
2023-03-08T23:12:18.901Z,100.00
2023-03-08T23:14:45.444Z,100.00
2023-03-08T23:17:12.017Z,100.00
2023-03-08T23:19:38.656Z,100.00
2023-03-08T23:22:05.343Z,100.00
2023-03-08T23:24:31.541Z,100.00
2023-03-08T23:27:01.115Z,100.00
2023-03-08T23:29:27.382Z,100.00
2023-03-08T23:31:54.560Z,100.00
2023-03-08T23:34:20.701Z,100.00
2023-03-08T23:36:47.040Z,100.00
2023-03-08T23:39:13.216Z,100.00
2023-03-08T23:41:42.685Z,100.00
2023-03-08T23:44:09.901Z,100.00
2023-03-08T23:46:36.715Z,100.00
2023-03-08T23:49:03.192Z,100.00
2023-03-08T23:51:31.361Z,100.00
2023-03-08T23:53:59.677Z,100.00
2023-03-08T23:56:36.869Z,100.00
2023-03-08T23:59:07.455Z,100.00
